createdAt,value
2018-04-11T00:01:52.561Z,5.70
2018-04-11T00:04:18.877Z,5.30
2018-04-11T00:06:45.202Z,4.67
2018-04-11T00:09:11.491Z,5.30
2018-04-11T00:11:37.886Z,5.20
2018-04-11T00:14:04.263Z,5.70
2018-04-11T00:16:30.541Z,4.43
2018-04-11T00:18:56.896Z,4.67
2018-04-11T00:21:23.289Z,5.37
2018-04-11T00:23:49.581Z,5.13
2018-04-11T00:26:15.923Z,4.73
2018-04-11T00:28:42.255Z,5.10
2018-04-11T00:31:08.633Z,5.83
2018-04-11T00:33:35.067Z,5.37
2018-04-11T00:36:01.404Z,5.60
2018-04-11T00:38:27.692Z,5.53
2018-04-11T00:40:54.100Z,6.13
2018-04-11T00:43:20.408Z,5.37
2018-04-11T00:45:46.760Z,6.00
2018-04-11T00:48:13.113Z,5.30
2018-04-11T00:50:39.419Z,6.27
2018-04-11T00:53:17.988Z,6.30
2018-04-11T00:55:44.262Z,5.70
2018-04-11T00:58:10.633Z,5.80
2018-04-11T01:00:37.006Z,5.33
2018-04-11T01:03:03.293Z,5.63
2018-04-11T01:05:29.643Z,6.03
2018-04-11T01:07:55.975Z,5.60
2018-04-11T01:10:22.405Z,5.53
2018-04-11T01:12:48.689Z,4.93
2018-04-11T01:15:15.120Z,5.60
2018-04-11T01:17:41.453Z,5.53
2018-04-11T01:20:08.888Z,5.07
2018-04-11T01:22:35.280Z,5.27
2018-04-11T01:25:01.608Z,5.07
2018-04-11T01:27:27.936Z,5.77
2018-04-11T01:29:57.800Z,5.27
2018-04-11T01:32:24.129Z,4.67
2018-04-11T01:34:50.518Z,5.60
2018-04-11T01:37:16.885Z,5.23
2018-04-11T01:39:43.213Z,5.43
2018-04-11T01:42:09.633Z,5.80
2018-04-11T01:44:36.062Z,6.27
2018-04-11T01:47:02.469Z,5.30
2018-04-11T01:49:28.853Z,4.73
2018-04-11T01:51:58.472Z,4.30
2018-04-11T01:54:24.799Z,4.30
2018-04-11T01:56:51.150Z,5.17
2018-04-11T01:59:17.529Z,5.47
2018-04-11T02:01:45.953Z,5.07
2018-04-11T02:04:12.358Z,4.40
2018-04-11T02:06:38.760Z,5.53
2018-04-11T02:09:05.100Z,5.70
2018-04-11T02:11:31.555Z,5.80
2018-04-11T02:13:58.042Z,5.33
2018-04-11T02:16:24.438Z,5.93
2018-04-11T02:18:50.803Z,6.10
2018-04-11T02:21:18.277Z,4.77
2018-04-11T02:23:44.669Z,5.67
2018-04-11T02:26:11.105Z,5.30
2018-04-11T02:28:37.554Z,5.70
2018-04-11T02:31:04.010Z,4.83
2018-04-11T02:33:30.416Z,5.60
2018-04-11T02:35:56.799Z,5.63
2018-04-11T02:38:23.115Z,5.90
2018-04-11T02:40:49.549Z,6.27
2018-04-11T02:43:15.944Z,5.37
2018-04-11T02:45:42.349Z,5.90
2018-04-11T02:48:08.706Z,5.27
2018-04-11T02:50:35.135Z,5.13
2018-04-11T02:53:01.537Z,4.77
2018-04-11T02:55:27.923Z,5.53
2018-04-11T02:57:54.347Z,5.97
2018-04-11T03:00:20.829Z,6.90
2018-04-11T03:02:47.240Z,5.43
2018-04-11T03:05:13.599Z,5.67
2018-04-11T03:07:40.005Z,5.43
2018-04-11T03:10:06.460Z,5.60
2018-04-11T03:12:32.894Z,5.83
2018-04-11T03:14:59.229Z,6.00
2018-04-11T03:17:25.566Z,5.53
2018-04-11T03:19:51.971Z,5.97
2018-04-11T03:22:18.361Z,4.83
2018-04-11T03:24:44.767Z,5.40
2018-04-11T03:27:11.146Z,5.60
2018-04-11T03:29:37.523Z,5.97
2018-04-11T03:32:03.994Z,5.00
2018-04-11T03:34:30.417Z,5.33
2018-04-11T03:36:56.904Z,5.40
2018-04-11T03:39:23.383Z,6.00
2018-04-11T03:41:50.876Z,5.40
2018-04-11T03:44:17.296Z,5.70
2018-04-11T03:46:43.659Z,5.47
2018-04-11T03:49:10.068Z,5.23
2018-04-11T03:51:36.500Z,5.00
2018-04-11T03:54:02.848Z,5.60
2018-04-11T03:56:29.181Z,5.20
2018-04-11T03:58:55.609Z,5.43
2018-04-11T04:01:23.093Z,4.80
2018-04-11T04:03:49.504Z,5.30
2018-04-11T04:06:15.914Z,4.90
2018-04-11T04:08:42.335Z,4.70
2018-04-11T04:11:08.881Z,4.57
2018-04-11T04:13:47.469Z,6.33
2018-04-11T04:16:26.009Z,5.13
2018-04-11T04:21:54.701Z,5.43
2018-04-11T04:24:21.165Z,5.37
2018-04-11T04:26:47.531Z,5.30
2018-04-11T04:29:13.883Z,4.90
2018-04-11T04:31:40.414Z,5.60
2018-04-11T04:34:06.794Z,5.23
2018-04-11T04:36:33.281Z,5.90
2018-04-11T04:38:59.868Z,5.10
2018-04-11T04:41:26.303Z,5.00
2018-04-11T04:43:52.843Z,5.80
2018-04-11T04:46:19.266Z,4.50
2018-04-11T04:48:45.690Z,5.40
2018-04-11T04:51:12.252Z,5.43
2018-04-11T04:53:38.682Z,5.47
2018-04-11T04:56:05.114Z,5.03
2018-04-11T04:58:31.519Z,5.40
2018-04-11T05:00:57.970Z,5.43
2018-04-11T05:03:24.333Z,5.50
2018-04-11T05:05:50.786Z,5.07
2018-04-11T05:08:17.193Z,5.33
2018-04-11T05:10:44.671Z,6.73
2018-04-11T05:13:11.097Z,5.97
2018-04-11T05:15:37.559Z,5.33
2018-04-11T05:18:04.027Z,5.87
2018-04-11T05:20:30.576Z,6.00
2018-04-11T05:22:56.975Z,7.03
2018-04-11T05:25:23.411Z,7.07
2018-04-11T05:27:49.845Z,10.70
2018-04-11T05:30:16.468Z,10.13
2018-04-11T05:32:42.949Z,8.80
2018-04-11T05:35:09.556Z,10.07
2018-04-11T05:37:36.027Z,10.30
2018-04-11T05:40:02.494Z,12.13
2018-04-11T05:42:28.893Z,10.93
2018-04-11T05:44:55.295Z,12.47
2018-04-11T05:47:21.706Z,16.40
2018-04-11T05:49:48.129Z,18.73
2018-04-11T05:52:14.604Z,10.03
2018-04-11T05:54:41.001Z,15.43
2018-04-11T05:57:07.515Z,10.27
2018-04-11T05:59:33.923Z,11.07
2018-04-11T06:02:00.366Z,8.50
2018-04-11T06:04:26.747Z,21.60
2018-04-11T06:06:53.109Z,9.33
2018-04-11T06:09:19.515Z,10.33
2018-04-11T06:11:46.209Z,10.03
2018-04-11T06:14:12.616Z,8.20
2018-04-11T06:16:39.019Z,9.23
2018-04-11T06:19:05.414Z,10.70
2018-04-11T06:21:31.875Z,12.30
2018-04-11T06:23:58.382Z,6.33
2018-04-11T06:26:24.767Z,10.77
2018-04-11T06:28:51.227Z,6.57
2018-04-11T06:31:17.616Z,6.47
2018-04-11T06:33:44.060Z,6.43
2018-04-11T06:36:10.525Z,8.77
2018-04-11T06:38:36.906Z,6.17
2018-04-11T06:41:03.606Z,5.90
2018-04-11T06:43:30.043Z,5.53
2018-04-11T06:45:56.735Z,5.67
2018-04-11T06:48:23.246Z,5.90
2018-04-11T06:50:49.993Z,5.33
2018-04-11T06:53:16.392Z,5.80
2018-04-11T06:55:42.773Z,5.93
2018-04-11T06:58:09.157Z,6.07
2018-04-11T07:00:35.541Z,5.07
2018-04-11T07:03:02.031Z,7.00
2018-04-11T07:05:28.389Z,6.07
2018-04-11T07:07:54.804Z,6.03
2018-04-11T07:10:21.329Z,6.53
2018-04-11T07:12:47.770Z,6.43
2018-04-11T07:15:14.189Z,5.90
2018-04-11T07:17:40.630Z,6.10
2018-04-11T07:20:07.032Z,6.53
2018-04-11T07:22:33.452Z,5.50
2018-04-11T07:24:59.991Z,5.73
2018-04-11T07:27:26.339Z,5.67
2018-04-11T07:29:52.715Z,4.90
2018-04-11T07:32:19.215Z,7.33
2018-04-11T07:34:45.657Z,5.90
2018-04-11T07:37:12.028Z,5.50
2018-04-11T07:39:38.445Z,6.50
2018-04-11T07:42:05.028Z,5.63
2018-04-11T07:44:31.466Z,5.40
2018-04-11T07:46:57.845Z,5.73
2018-04-11T07:49:24.214Z,5.63
2018-04-11T07:51:50.952Z,6.13
2018-04-11T07:54:17.498Z,7.00
2018-04-11T07:56:43.868Z,6.87
2018-04-11T07:59:10.297Z,6.30
2018-04-11T08:01:36.748Z,6.53
2018-04-11T08:04:03.150Z,6.33
2018-04-11T08:06:29.881Z,5.87
2018-04-11T08:08:56.427Z,6.10
2018-04-11T08:11:22.914Z,6.10
2018-04-11T08:13:49.348Z,5.40
2018-04-11T08:16:15.759Z,6.37
2018-04-11T08:18:42.318Z,6.87
2018-04-11T08:21:09.161Z,5.20
2018-04-11T08:23:35.526Z,5.60
2018-04-11T08:26:01.984Z,5.60
2018-04-11T08:28:28.393Z,5.10
2018-04-11T08:30:54.957Z,5.57
2018-04-11T08:33:21.379Z,5.83
2018-04-11T08:35:47.732Z,5.53
2018-04-11T08:38:14.231Z,5.43
2018-04-11T08:40:40.689Z,5.30
2018-04-11T08:43:07.232Z,5.17
2018-04-11T08:45:34.021Z,5.80
2018-04-11T08:48:00.459Z,5.43
2018-04-11T08:50:26.932Z,5.23
2018-04-11T08:52:53.386Z,5.17
2018-04-11T08:55:19.743Z,5.20
2018-04-11T08:57:46.170Z,5.20
2018-04-11T09:00:12.577Z,5.10
2018-04-11T09:02:39.069Z,4.80
2018-04-11T09:05:05.426Z,6.43
2018-04-11T09:07:31.833Z,5.60
2018-04-11T09:09:58.204Z,5.30
2018-04-11T09:12:24.682Z,6.70
2018-04-11T09:14:51.042Z,4.90
2018-04-11T09:17:17.407Z,4.47
2018-04-11T09:19:43.842Z,4.60
2018-04-11T09:22:10.332Z,5.00
2018-04-11T09:24:36.666Z,4.90
2018-04-11T09:27:03.039Z,4.77
2018-04-11T09:29:29.516Z,5.03
2018-04-11T09:31:56.297Z,5.07
2018-04-11T09:34:23.683Z,4.60
2018-04-11T09:36:50.262Z,5.80
2018-04-11T09:39:16.675Z,5.37
2018-04-11T09:41:43.184Z,5.13
2018-04-11T09:44:09.582Z,4.57
2018-04-11T09:46:35.979Z,5.40
2018-04-11T09:49:02.425Z,5.77
2018-04-11T09:51:28.963Z,3.93
2018-04-11T09:53:55.496Z,3.73
2018-04-11T09:56:21.973Z,4.40
2018-04-11T09:58:48.425Z,4.07
2018-04-11T10:01:18.844Z,4.40
2018-04-11T10:03:45.333Z,4.20
2018-04-11T10:06:11.816Z,4.10
2018-04-11T10:08:38.244Z,4.00
2018-04-11T10:11:04.768Z,3.00
2018-04-11T10:13:31.225Z,3.50
2018-04-11T10:15:58.455Z,3.67
2018-04-11T10:18:25.004Z,3.83
2018-04-11T10:20:51.642Z,3.60
2018-04-11T10:23:18.269Z,3.60
2018-04-11T10:25:44.787Z,3.77
2018-04-11T10:28:11.262Z,3.93
2018-04-11T10:30:37.685Z,3.70
2018-04-11T10:33:04.155Z,3.70
2018-04-11T10:35:30.691Z,3.77
2018-04-11T10:37:57.157Z,4.57
2018-04-11T10:40:23.504Z,4.17
2018-04-11T10:42:50.150Z,4.73
2018-04-11T10:45:16.540Z,4.20
2018-04-11T10:47:42.902Z,3.73
2018-04-11T10:50:09.553Z,3.97
2018-04-11T10:52:36.043Z,3.07
2018-04-11T10:55:02.411Z,3.50
2018-04-11T10:57:29.864Z,3.73
2018-04-11T10:59:56.228Z,4.93
2018-04-11T11:02:23.744Z,3.90
2018-04-11T11:04:50.185Z,5.03
2018-04-11T11:07:17.326Z,4.33
2018-04-11T11:09:44.534Z,4.43
2018-04-11T11:12:11.254Z,4.10
2018-04-11T11:14:37.775Z,3.77
2018-04-11T11:17:04.259Z,4.20
2018-04-11T11:19:30.757Z,4.73
2018-04-11T11:21:57.264Z,4.37
2018-04-11T11:24:23.609Z,3.63
2018-04-11T11:26:50.068Z,4.50
2018-04-11T11:29:16.455Z,4.03
2018-04-11T11:31:42.903Z,3.83
2018-04-11T11:34:09.386Z,3.90
2018-04-11T11:36:35.951Z,3.70
2018-04-11T11:39:02.466Z,3.53
2018-04-11T11:41:29.083Z,3.40
2018-04-11T11:43:55.562Z,4.30
2018-04-11T11:46:22.185Z,3.50
2018-04-11T11:48:48.767Z,4.40
2018-04-11T11:51:15.290Z,3.67
2018-04-11T11:53:41.674Z,3.93
2018-04-11T11:56:08.085Z,3.67
2018-04-11T11:58:34.556Z,4.33
2018-04-11T12:01:01.062Z,3.80
2018-04-11T12:03:27.502Z,3.50
2018-04-11T12:05:53.859Z,3.97
2018-04-11T12:08:20.227Z,4.03
2018-04-11T12:10:46.785Z,4.00
2018-04-11T12:13:13.284Z,3.97
2018-04-11T12:15:39.787Z,4.00
2018-04-11T12:18:06.272Z,3.87
2018-04-11T12:20:32.669Z,3.60
2018-04-11T12:22:59.083Z,3.87
2018-04-11T12:25:25.657Z,4.03
2018-04-11T12:27:52.025Z,3.90
2018-04-11T12:30:18.464Z,4.33
2018-04-11T12:32:44.920Z,3.93
2018-04-11T12:35:11.273Z,4.87
2018-04-11T12:37:37.666Z,3.70
2018-04-11T12:40:04.051Z,3.70
2018-04-11T12:42:31.542Z,3.80
2018-04-11T12:44:58.087Z,3.50
2018-04-11T12:47:24.490Z,3.77
2018-04-11T12:49:51.050Z,4.40
2018-04-11T12:52:17.612Z,3.70
2018-04-11T12:54:44.066Z,3.93
2018-04-11T12:57:10.852Z,3.83
2018-04-11T12:59:38.301Z,4.17
2018-04-11T13:02:04.874Z,3.53
2018-04-11T13:04:31.223Z,3.67
2018-04-11T13:06:57.674Z,4.07
2018-04-11T13:09:24.258Z,3.90
2018-04-11T13:11:50.854Z,3.33
2018-04-11T13:14:17.329Z,3.43
2018-04-11T13:16:43.764Z,3.87
2018-04-11T13:19:10.226Z,3.80
2018-04-11T13:21:36.710Z,4.10
2018-04-11T13:24:03.290Z,3.77
2018-04-11T13:26:29.801Z,3.60
2018-04-11T13:28:56.308Z,5.23
2018-04-11T13:31:22.932Z,3.50
2018-04-11T13:33:49.514Z,3.80
2018-04-11T13:36:15.962Z,3.53
2018-04-11T13:38:42.359Z,4.00
2018-04-11T13:41:08.858Z,4.30
2018-04-11T13:43:35.350Z,4.37
2018-04-11T13:46:01.851Z,4.40
2018-04-11T13:48:28.380Z,3.83
2018-04-11T13:50:55.097Z,4.10
2018-04-11T13:53:22.151Z,4.00
2018-04-11T13:55:48.616Z,3.97
2018-04-11T13:58:15.119Z,3.70
2018-04-11T14:00:41.620Z,3.93
2018-04-11T14:03:08.135Z,4.30
2018-04-11T14:05:34.635Z,4.30
2018-04-11T14:08:01.250Z,3.83
2018-04-11T14:10:28.032Z,3.43
2018-04-11T14:12:54.792Z,3.93
2018-04-11T14:15:21.300Z,4.20
2018-04-11T14:17:47.680Z,3.53
2018-04-11T14:20:14.156Z,3.90
2018-04-11T14:22:40.726Z,3.80
2018-04-11T14:25:07.443Z,3.90
2018-04-11T14:27:33.905Z,4.60
2018-04-11T14:30:00.479Z,3.90
2018-04-11T14:32:26.893Z,4.27
2018-04-11T14:34:53.376Z,3.40
2018-04-11T14:37:19.859Z,3.60
2018-04-11T14:39:46.336Z,4.10
2018-04-11T14:42:12.952Z,3.87
2018-04-11T14:44:39.422Z,4.10
2018-04-11T14:47:05.893Z,3.83
2018-04-11T14:49:32.410Z,4.13
2018-04-11T14:51:59.022Z,3.77
2018-04-11T14:54:25.486Z,3.50
2018-04-11T14:56:52.023Z,3.90
2018-04-11T14:59:18.585Z,3.67
2018-04-11T15:01:45.130Z,3.70
2018-04-11T15:04:11.567Z,3.67
2018-04-11T15:06:38.051Z,3.67
2018-04-11T15:09:04.624Z,3.63
2018-04-11T15:11:31.155Z,4.00
2018-04-11T15:13:57.605Z,3.83
2018-04-11T15:16:24.133Z,4.23
2018-04-11T15:18:50.574Z,3.97
2018-04-11T15:21:17.219Z,3.93
2018-04-11T15:23:43.642Z,3.77
2018-04-11T15:26:10.058Z,4.67
2018-04-11T15:28:36.506Z,3.60
2018-04-11T15:31:02.990Z,4.17
2018-04-11T15:33:29.398Z,4.17
2018-04-11T15:35:56.011Z,3.60
2018-04-11T15:38:22.601Z,3.80
2018-04-11T15:40:48.981Z,3.63
2018-04-11T15:43:15.499Z,3.67
2018-04-11T15:45:41.921Z,3.63
2018-04-11T15:48:08.331Z,4.33
2018-04-11T15:50:34.790Z,4.47
2018-04-11T15:53:01.231Z,4.20
2018-04-11T15:55:27.696Z,3.80
2018-04-11T15:57:54.167Z,3.97
2018-04-11T16:00:20.673Z,4.27
2018-04-11T16:02:47.121Z,4.23
2018-04-11T16:05:13.516Z,4.13
2018-04-11T16:07:39.981Z,3.90
2018-04-11T16:10:06.554Z,3.90
2018-04-11T16:12:33.209Z,4.07
2018-04-11T16:14:59.654Z,3.87
2018-04-11T16:17:26.075Z,3.67
2018-04-11T16:19:52.875Z,3.60
2018-04-11T16:22:19.422Z,4.23
2018-04-11T16:24:45.790Z,4.07
2018-04-11T16:27:12.201Z,4.37
2018-04-11T16:29:38.584Z,5.23
2018-04-11T16:32:05.084Z,3.77
2018-04-11T16:34:31.585Z,4.17
2018-04-11T16:36:58.016Z,4.40
2018-04-11T16:39:24.432Z,4.17
2018-04-11T16:41:50.952Z,4.17
2018-04-11T16:44:17.384Z,3.70
2018-04-11T16:46:44.323Z,4.10
2018-04-11T16:49:11.021Z,4.03
2018-04-11T16:51:37.778Z,3.40
2018-04-11T16:54:04.681Z,3.70
2018-04-11T16:56:31.153Z,3.90
2018-04-11T16:58:57.570Z,3.97
2018-04-11T17:01:25.186Z,3.33
2018-04-11T17:03:51.801Z,4.03
2018-04-11T17:06:18.260Z,3.43
2018-04-11T17:08:44.754Z,3.03
2018-04-11T17:11:11.254Z,3.93
2018-04-11T17:13:37.726Z,3.37
2018-04-11T17:16:04.599Z,5.13
2018-04-11T17:18:31.331Z,4.00
2018-04-11T17:21:10.006Z,3.63
2018-04-11T17:23:48.679Z,3.40
2018-04-11T17:26:27.343Z,3.80
2018-04-11T17:31:54.457Z,3.43
2018-04-11T17:34:20.914Z,3.83
2018-04-11T17:36:47.577Z,3.23
2018-04-11T17:39:14.069Z,3.43
2018-04-11T17:41:40.632Z,4.10
2018-04-11T17:44:07.167Z,3.33
2018-04-11T17:46:33.945Z,3.83
2018-04-11T17:49:00.606Z,4.40
2018-04-11T17:51:28.227Z,3.57
2018-04-11T17:53:55.317Z,3.50
2018-04-11T17:56:21.805Z,3.10
2018-04-11T17:58:48.519Z,3.97
2018-04-11T18:01:15.123Z,3.70
2018-04-11T18:03:41.842Z,2.87
2018-04-11T18:06:08.451Z,3.37
2018-04-11T18:08:35.199Z,3.50
2018-04-11T18:11:01.678Z,3.20
2018-04-11T18:13:29.161Z,3.53
2018-04-11T18:15:56.474Z,3.07
2018-04-11T18:18:22.948Z,3.30
2018-04-11T18:20:49.873Z,3.40
2018-04-11T18:23:17.460Z,3.50
2018-04-11T18:25:43.903Z,3.53
2018-04-11T18:28:10.634Z,3.57
2018-04-11T18:30:37.099Z,3.77
2018-04-11T18:33:03.786Z,3.80
2018-04-11T18:35:30.372Z,3.77
2018-04-11T18:37:56.977Z,3.67
2018-04-11T18:40:24.528Z,3.60
2018-04-11T18:42:51.109Z,4.30
2018-04-11T18:45:17.725Z,4.10
2018-04-11T18:47:44.199Z,4.63
2018-04-11T18:50:10.848Z,3.83
2018-04-11T18:52:37.801Z,3.97
2018-04-11T18:55:04.984Z,4.17
2018-04-11T18:57:31.604Z,5.07
2018-04-11T19:00:01.493Z,3.90
2018-04-11T19:02:28.519Z,3.50
2018-04-11T19:04:55.016Z,4.37
2018-04-11T19:07:21.450Z,4.57
2018-04-11T19:09:51.412Z,3.83
2018-04-11T19:12:23.102Z,4.30
2018-04-11T19:14:50.506Z,4.00
2018-04-11T19:17:17.320Z,3.97
2018-04-11T19:19:44.383Z,3.53
2018-04-11T19:22:11.807Z,4.03
2018-04-11T19:24:40.286Z,4.27
2018-04-11T19:27:07.552Z,3.73
2018-04-11T19:29:34.677Z,3.67
2018-04-11T19:32:02.440Z,3.80
2018-04-11T19:34:29.287Z,3.70
2018-04-11T19:36:55.748Z,3.90
2018-04-11T19:39:22.843Z,3.70
2018-04-11T19:41:49.700Z,4.30
2018-04-11T19:44:17.497Z,4.33
2018-04-11T19:46:47.143Z,4.60
2018-04-11T19:49:17.894Z,4.17
2018-04-11T19:51:45.549Z,3.90
2018-04-11T19:54:12.091Z,4.47
2018-04-11T19:56:38.724Z,4.83
2018-04-11T19:59:05.674Z,4.27
2018-04-11T20:01:32.372Z,5.00
2018-04-11T20:03:59.386Z,4.33
2018-04-11T20:06:25.950Z,4.07
2018-04-11T20:08:52.560Z,5.30
2018-04-11T20:11:19.126Z,4.30
2018-04-11T20:13:45.905Z,4.70
2018-04-11T20:16:12.432Z,4.10
2018-04-11T20:18:39.199Z,3.93
2018-04-11T20:21:05.769Z,4.13
2018-04-11T20:23:32.563Z,4.27
2018-04-11T20:25:59.367Z,4.33
2018-04-11T20:28:25.880Z,4.07
2018-04-11T20:30:52.497Z,3.83
2018-04-11T20:33:19.167Z,4.57
2018-04-11T20:35:45.850Z,3.63
2018-04-11T20:38:15.313Z,4.10
2018-04-11T20:40:42.011Z,3.93
2018-04-11T20:43:08.708Z,4.23
2018-04-11T20:45:35.211Z,4.10
2018-04-11T20:48:01.643Z,4.47
2018-04-11T20:50:28.171Z,4.50
2018-04-11T20:52:54.647Z,4.33
2018-04-11T20:55:21.052Z,3.90
2018-04-11T20:57:47.569Z,4.07
2018-04-11T21:00:14.028Z,4.30
2018-04-11T21:02:40.490Z,4.43
2018-04-11T21:05:07.071Z,4.83
2018-04-11T21:07:33.544Z,4.87
2018-04-11T21:09:59.939Z,5.17
2018-04-11T21:12:26.435Z,4.27
2018-04-11T21:14:52.885Z,4.53
2018-04-11T21:17:19.246Z,4.30
2018-04-11T21:19:45.625Z,3.90
2018-04-11T21:22:12.079Z,4.47
2018-04-11T21:24:38.433Z,5.53
2018-04-11T21:27:04.915Z,4.63
2018-04-11T21:29:31.358Z,4.63
2018-04-11T21:31:57.885Z,4.27
2018-04-11T21:34:24.242Z,3.90
2018-04-11T21:36:50.689Z,5.10
2018-04-11T21:39:17.021Z,4.63
2018-04-11T21:41:43.554Z,4.30
2018-04-11T21:44:10.021Z,4.03
2018-04-11T21:46:36.411Z,4.70
2018-04-11T21:49:02.794Z,4.53
2018-04-11T21:51:29.220Z,5.20
2018-04-11T21:53:55.636Z,4.80
2018-04-11T21:56:21.992Z,4.67
2018-04-11T21:58:48.386Z,4.17
2018-04-11T22:01:14.780Z,4.50
2018-04-11T22:03:41.255Z,4.17
2018-04-11T22:06:07.660Z,4.17
2018-04-11T22:08:34.271Z,4.67
2018-04-11T22:11:00.586Z,4.33
2018-04-11T22:13:27.043Z,4.30
2018-04-11T22:15:53.466Z,4.30
2018-04-11T22:18:19.895Z,4.10
2018-04-11T22:20:46.271Z,4.60
2018-04-11T22:23:12.609Z,4.30
2018-04-11T22:25:39.030Z,4.90
2018-04-11T22:28:05.441Z,4.40
2018-04-11T22:30:31.797Z,4.17
2018-04-11T22:32:58.241Z,4.33
2018-04-11T22:35:24.715Z,4.73
2018-04-11T22:37:51.144Z,4.63
2018-04-11T22:40:17.609Z,5.03
2018-04-11T22:42:44.040Z,3.90
2018-04-11T22:45:10.756Z,4.63
2018-04-11T22:47:37.193Z,4.90
2018-04-11T22:50:03.635Z,4.17
2018-04-11T22:52:30.075Z,5.23
2018-04-11T22:54:56.412Z,4.57
2018-04-11T22:57:22.828Z,5.27
2018-04-11T22:59:49.230Z,4.47
2018-04-11T23:02:15.737Z,5.20
2018-04-11T23:04:42.187Z,4.67
2018-04-11T23:07:08.609Z,4.27
2018-04-11T23:09:35.176Z,4.70
2018-04-11T23:12:01.700Z,4.87
2018-04-11T23:14:28.078Z,5.03
2018-04-11T23:16:54.523Z,4.63
2018-04-11T23:19:21.078Z,4.63
2018-04-11T23:21:47.455Z,4.83
2018-04-11T23:24:13.913Z,5.57
2018-04-11T23:26:40.300Z,4.70
2018-04-11T23:29:06.711Z,4.87
2018-04-11T23:31:33.221Z,4.50
2018-04-11T23:33:59.901Z,5.17
2018-04-11T23:36:26.455Z,4.17
2018-04-11T23:38:52.877Z,5.47
2018-04-11T23:41:19.308Z,4.80
2018-04-11T23:43:45.807Z,5.50
2018-04-11T23:46:12.315Z,5.10
2018-04-11T23:48:38.754Z,6.70
2018-04-11T23:51:05.151Z,5.13
2018-04-11T23:53:31.547Z,5.37
2018-04-11T23:55:58.020Z,5.33
2018-04-11T23:58:24.498Z,6.07
